createdAt,value
2019-05-06T00:02:06.716Z,3.80
2019-05-06T00:04:34.105Z,3.77
2019-05-06T00:07:00.713Z,3.87
2019-05-06T00:09:27.077Z,3.50
2019-05-06T00:11:54.389Z,2.73
2019-05-06T00:14:23.546Z,2.83
2019-05-06T00:16:50.837Z,3.10
2019-05-06T00:19:17.213Z,2.83
2019-05-06T00:21:44.361Z,3.17
2019-05-06T00:24:10.914Z,2.73
2019-05-06T00:26:40.108Z,2.90
2019-05-06T00:29:11.260Z,3.10
2019-05-06T00:31:37.592Z,3.93
2019-05-06T00:34:04.372Z,2.80
2019-05-06T00:36:30.911Z,2.13
2019-05-06T00:38:59.532Z,2.30
2019-05-06T00:41:27.761Z,3.00
2019-05-06T00:43:54.562Z,2.70
2019-05-06T00:46:21.231Z,2.40
2019-05-06T00:48:47.566Z,2.87
2019-05-06T00:51:13.928Z,3.00
2019-05-06T00:53:45.320Z,3.07
2019-05-06T00:56:13.542Z,3.50
2019-05-06T00:58:39.901Z,2.57
2019-05-06T01:01:06.290Z,2.67
2019-05-06T01:03:34.630Z,3.00
2019-05-06T01:06:00.853Z,3.07
2019-05-06T01:08:27.189Z,3.03
2019-05-06T01:10:54.626Z,2.93
2019-05-06T01:13:39.952Z,3.00
2019-05-06T01:16:10.149Z,2.80
2019-05-06T01:18:36.481Z,3.63
2019-05-06T01:21:08.956Z,2.57
2019-05-06T01:23:35.444Z,2.50
2019-05-06T01:26:01.782Z,3.40
2019-05-06T01:28:29.107Z,2.33
2019-05-06T01:30:55.458Z,2.90
2019-05-06T01:33:23.738Z,2.93
2019-05-06T01:35:50.093Z,2.77
2019-05-06T01:38:27.302Z,3.30
2019-05-06T01:40:59.353Z,2.53
2019-05-06T01:43:30.951Z,3.47
2019-05-06T01:45:57.765Z,2.77
2019-05-06T01:48:44.320Z,3.20
2019-05-06T01:51:10.809Z,2.70
2019-05-06T01:53:37.112Z,2.70
2019-05-06T01:56:03.697Z,3.47
2019-05-06T01:58:30.379Z,2.70
2019-05-06T02:00:57.160Z,3.30
2019-05-06T02:03:24.233Z,3.53
2019-05-06T02:05:50.660Z,3.67
2019-05-06T02:08:17.013Z,3.33
2019-05-06T02:10:43.639Z,2.80
2019-05-06T02:13:09.980Z,3.67
2019-05-06T02:15:36.310Z,3.37
2019-05-06T02:18:04.106Z,2.60
2019-05-06T02:20:31.137Z,3.17
2019-05-06T02:22:59.416Z,3.77
2019-05-06T02:25:30.542Z,2.97
2019-05-06T02:27:56.922Z,3.60
2019-05-06T02:30:40.469Z,3.20
2019-05-06T02:33:15.495Z,3.77
2019-05-06T02:35:46.427Z,3.47
2019-05-06T02:38:25.821Z,4.50
2019-05-06T02:40:53.543Z,3.73
2019-05-06T02:43:19.173Z,4.53
2019-05-06T02:45:45.584Z,3.87
2019-05-06T02:48:14.085Z,5.00
2019-05-06T02:50:43.241Z,4.60
2019-05-06T02:53:09.580Z,3.97
2019-05-06T02:55:36.397Z,4.60
2019-05-06T02:58:02.968Z,4.07
2019-05-06T03:00:29.418Z,3.83
2019-05-06T03:02:55.745Z,3.83
2019-05-06T03:05:23.719Z,5.17
2019-05-06T03:07:50.363Z,4.60
2019-05-06T03:10:17.542Z,4.97
2019-05-06T03:12:43.925Z,3.90
2019-05-06T03:15:16.180Z,4.23
2019-05-06T03:17:39.675Z,4.00
2019-05-06T03:20:08.105Z,4.30
2019-05-06T03:22:37.316Z,4.63
2019-05-06T03:25:13.406Z,4.97
2019-05-06T03:27:38.704Z,6.27
2019-05-06T03:30:05.837Z,4.83
2019-05-06T03:32:37.587Z,5.40
2019-05-06T03:35:23.035Z,4.93
2019-05-06T03:37:29.256Z,4.70
2019-05-06T03:39:55.628Z,5.90
2019-05-06T03:42:23.167Z,5.20
2019-05-06T03:44:53.318Z,5.47
2019-05-06T03:47:34.430Z,5.33
2019-05-06T03:50:00.316Z,5.43
2019-05-06T03:52:28.440Z,6.10
2019-05-06T03:54:57.054Z,6.37
2019-05-06T03:57:26.577Z,6.30
2019-05-06T03:59:53.564Z,5.17
2019-05-06T04:02:20.176Z,5.83
2019-05-06T04:04:46.541Z,5.00
2019-05-06T04:07:14.058Z,5.50
2019-05-06T04:09:43.935Z,5.70
2019-05-06T04:12:09.161Z,5.03
2019-05-06T04:14:35.470Z,5.70
2019-05-06T04:17:04.186Z,6.10
2019-05-06T04:19:33.470Z,5.50
2019-05-06T04:22:03.689Z,5.67
2019-05-06T04:24:33.711Z,5.33
2019-05-06T04:27:43.060Z,5.90
2019-05-06T04:30:17.839Z,5.40
2019-05-06T04:32:53.215Z,4.77
2019-05-06T04:35:22.974Z,5.30
2019-05-06T04:37:49.822Z,6.20
2019-05-06T04:40:17.052Z,5.53
2019-05-06T04:42:44.728Z,5.60
2019-05-06T04:45:13.552Z,5.57
2019-05-06T04:47:39.705Z,4.30
2019-05-06T04:50:07.364Z,6.03
2019-05-06T04:52:34.581Z,6.30
2019-05-06T04:55:03.356Z,5.10
2019-05-06T04:57:33.354Z,5.30
2019-05-06T04:59:58.462Z,5.03
2019-05-06T05:02:26.296Z,6.20
2019-05-06T05:04:53.231Z,5.20
2019-05-06T05:07:22.312Z,5.97
2019-05-06T05:09:48.119Z,5.40
2019-05-06T05:12:19.100Z,5.70
2019-05-06T05:15:03.259Z,5.60
2019-05-06T05:17:33.103Z,5.57
2019-05-06T05:20:02.066Z,6.03
2019-05-06T05:22:28.482Z,5.80
2019-05-06T05:24:54.834Z,6.03
2019-05-06T05:27:21.941Z,6.33
2019-05-06T05:29:49.486Z,5.90
2019-05-06T05:32:15.921Z,6.00
2019-05-06T05:34:43.571Z,5.63
2019-05-06T05:37:12.087Z,5.30
2019-05-06T05:39:38.489Z,5.23
2019-05-06T05:42:09.758Z,5.00
2019-05-06T05:44:37.991Z,5.10
2019-05-06T05:47:04.443Z,6.23
2019-05-06T05:49:33.379Z,5.87
2019-05-06T05:51:59.846Z,6.83
2019-05-06T05:54:26.367Z,6.20
2019-05-06T05:56:52.996Z,5.53
2019-05-06T05:59:19.792Z,5.80
2019-05-06T06:01:46.165Z,4.90
2019-05-06T06:04:13.084Z,5.73
2019-05-06T06:06:39.840Z,5.57
2019-05-06T06:09:06.685Z,6.93
2019-05-06T06:11:41.982Z,6.17
2019-05-06T06:14:28.810Z,6.17
2019-05-06T06:17:02.019Z,6.00
2019-05-06T06:19:45.685Z,5.07
2019-05-06T06:22:16.830Z,4.63
2019-05-06T06:24:43.342Z,5.93
2019-05-06T06:27:12.544Z,5.23
2019-05-06T06:29:41.711Z,6.40
2019-05-06T06:32:18.943Z,6.13
2019-05-06T06:34:45.278Z,5.90
2019-05-06T06:37:33.209Z,6.27
2019-05-06T06:40:02.569Z,5.70
2019-05-06T06:42:29.176Z,5.30
2019-05-06T06:44:55.599Z,4.57
2019-05-06T06:47:22.581Z,5.83
2019-05-06T06:49:49.259Z,4.93
2019-05-06T06:52:16.695Z,6.33
2019-05-06T06:54:43.819Z,5.43
2019-05-06T06:57:15.062Z,6.07
2019-05-06T06:59:46.473Z,7.50
2019-05-06T07:02:15.088Z,4.77
2019-05-06T07:04:43.443Z,5.57
2019-05-06T07:07:12.765Z,5.90
2019-05-06T07:09:38.631Z,4.80
2019-05-06T07:12:05.002Z,5.47
2019-05-06T07:14:32.643Z,5.40
2019-05-06T07:17:02.425Z,5.17
2019-05-06T07:19:33.474Z,4.83
2019-05-06T07:21:59.856Z,4.13
2019-05-06T07:24:26.195Z,4.70
2019-05-06T07:26:54.732Z,5.57
2019-05-06T07:29:24.272Z,5.27
2019-05-06T07:31:49.337Z,4.70
2019-05-06T07:34:15.799Z,4.50
2019-05-06T07:36:43.082Z,5.10
2019-05-06T07:39:09.604Z,4.20
2019-05-06T07:41:47.539Z,5.67
2019-05-06T07:44:27.327Z,4.47
2019-05-06T07:47:15.556Z,6.33
2019-05-06T07:49:43.245Z,3.60
2019-05-06T07:52:12.213Z,4.00
2019-05-06T07:54:38.133Z,3.43
2019-05-06T07:57:04.451Z,3.10
2019-05-06T07:59:33.262Z,3.10
2019-05-06T08:01:59.012Z,4.53
2019-05-06T08:04:25.345Z,4.53
2019-05-06T08:06:52.302Z,3.93
2019-05-06T08:09:19.027Z,2.93
2019-05-06T08:11:45.366Z,3.43
2019-05-06T08:14:13.047Z,4.33
2019-05-06T08:16:44.233Z,3.70
2019-05-06T08:19:11.930Z,3.40
2019-05-06T08:21:40.176Z,2.97
2019-05-06T08:24:06.511Z,2.13
2019-05-06T08:26:33.136Z,2.83
2019-05-06T08:28:59.477Z,1.90
2019-05-06T08:31:25.800Z,2.50
2019-05-06T08:33:53.283Z,3.03
2019-05-06T08:36:22.556Z,2.87
2019-05-06T08:38:55.652Z,2.10
2019-05-06T08:41:22.753Z,2.07
2019-05-06T08:43:49.241Z,2.73
2019-05-06T08:46:15.591Z,1.40
2019-05-06T08:48:42.838Z,2.70
2019-05-06T08:51:13.072Z,2.20
2019-05-06T08:53:42.444Z,3.07
2019-05-06T08:56:12.624Z,2.73
2019-05-06T08:58:45.622Z,2.63
2019-05-06T09:01:32.508Z,2.80
2019-05-06T09:04:08.691Z,2.30
2019-05-06T09:06:30.632Z,2.00
2019-05-06T09:08:57.004Z,2.40
2019-05-06T09:11:25.909Z,2.70
2019-05-06T09:13:52.289Z,3.33
2019-05-06T09:16:18.657Z,2.70
2019-05-06T09:18:44.950Z,2.17
2019-05-06T09:21:12.293Z,2.30
2019-05-06T09:23:39.264Z,2.20
2019-05-06T09:26:07.558Z,2.70
2019-05-06T09:28:35.844Z,1.87
2019-05-06T09:31:09.581Z,1.67
2019-05-06T09:33:49.452Z,2.27
2019-05-06T09:36:16.167Z,3.17
2019-05-06T09:38:42.604Z,2.67
2019-05-06T09:41:09.005Z,2.50
2019-05-06T09:43:35.351Z,2.37
2019-05-06T09:46:02.307Z,2.60
2019-05-06T09:48:33.027Z,1.83
2019-05-06T09:50:59.076Z,2.20
2019-05-06T09:53:27.406Z,2.10
2019-05-06T09:56:03.351Z,3.03
2019-05-06T09:58:32.325Z,2.30
2019-05-06T10:01:02.515Z,2.50
2019-05-06T10:03:28.948Z,1.90
2019-05-06T10:05:55.359Z,2.50
2019-05-06T10:08:22.776Z,2.40
2019-05-06T10:10:58.650Z,2.60
2019-05-06T10:13:17.470Z,2.70
2019-05-06T10:15:43.977Z,2.13
2019-05-06T10:18:13.402Z,2.80
2019-05-06T10:20:43.478Z,2.90
2019-05-06T10:23:11.817Z,3.30
2019-05-06T10:25:38.360Z,2.40
2019-05-06T10:28:25.165Z,2.43
2019-05-06T10:30:51.549Z,2.20
2019-05-06T10:33:22.439Z,1.80
2019-05-06T10:35:48.772Z,2.40
2019-05-06T10:38:36.131Z,2.10
2019-05-06T10:41:12.879Z,2.33
2019-05-06T10:43:56.144Z,3.00
2019-05-06T10:46:22.721Z,3.33
2019-05-06T10:48:49.017Z,2.83
2019-05-06T10:51:17.291Z,2.30
2019-05-06T10:53:44.713Z,2.27
2019-05-06T10:56:25.949Z,2.80
2019-05-06T10:58:52.758Z,2.70
2019-05-06T11:01:23.127Z,2.37
2019-05-06T11:03:49.527Z,2.03
2019-05-06T11:06:16.057Z,2.83
2019-05-06T11:08:42.461Z,1.90
2019-05-06T11:11:15.430Z,2.10
2019-05-06T11:13:37.445Z,2.20
2019-05-06T11:16:03.752Z,2.73
2019-05-06T11:18:30.102Z,2.50
2019-05-06T11:20:56.577Z,2.30
2019-05-06T11:23:23.173Z,2.43
2019-05-06T11:25:49.485Z,2.90
2019-05-06T11:28:35.293Z,2.63
2019-05-06T11:31:03.865Z,4.00
2019-05-06T11:33:44.165Z,2.70
2019-05-06T11:36:15.265Z,2.70
2019-05-06T11:38:43.191Z,1.70
2019-05-06T11:41:09.803Z,3.23
2019-05-06T11:43:36.227Z,2.53
2019-05-06T11:46:02.713Z,2.07
2019-05-06T11:48:29.239Z,2.20
2019-05-06T11:50:57.456Z,2.47
2019-05-06T11:53:23.787Z,2.73
2019-05-06T11:55:54.419Z,2.53
2019-05-06T11:58:22.376Z,1.87
2019-05-06T12:00:48.552Z,2.50
2019-05-06T12:03:15.318Z,2.00
2019-05-06T12:05:41.886Z,2.07
2019-05-06T12:08:08.548Z,2.43
2019-05-06T12:10:36.074Z,2.27
2019-05-06T12:13:02.896Z,2.43
2019-05-06T12:15:29.407Z,2.20
2019-05-06T12:17:55.768Z,2.07
2019-05-06T12:20:22.250Z,2.70
2019-05-06T12:22:48.752Z,2.13
2019-05-06T12:25:15.846Z,2.27
2019-05-06T12:27:45.564Z,3.70
2019-05-06T12:30:23.087Z,3.20
2019-05-06T12:32:49.786Z,2.10
2019-05-06T12:35:16.121Z,2.93
2019-05-06T12:37:44.529Z,4.03
2019-05-06T12:40:12.488Z,2.67
2019-05-06T12:42:43.801Z,2.67
2019-05-06T12:45:19.394Z,2.70
2019-05-06T12:47:53.360Z,3.03
2019-05-06T12:50:22.505Z,2.37
2019-05-06T12:52:48.595Z,2.50
2019-05-06T12:55:21.324Z,2.17
2019-05-06T12:57:44.611Z,2.20
2019-05-06T13:00:13.176Z,2.67
2019-05-06T13:02:40.348Z,1.90
2019-05-06T13:05:07.169Z,2.80
2019-05-06T13:07:46.938Z,2.10
2019-05-06T13:10:17.566Z,2.47
2019-05-06T13:12:45.857Z,2.90
2019-05-06T13:15:13.649Z,2.30
2019-05-06T13:17:42.394Z,2.77
2019-05-06T13:20:08.597Z,2.47
2019-05-06T13:22:53.367Z,2.30
2019-05-06T13:25:20.120Z,2.60
2019-05-06T13:27:47.343Z,2.87
2019-05-06T13:30:14.554Z,3.40
2019-05-06T13:32:45.770Z,2.00
2019-05-06T13:35:12.492Z,2.67
2019-05-06T13:37:39.126Z,2.10
2019-05-06T13:40:05.902Z,1.90
2019-05-06T13:42:34.242Z,2.63
2019-05-06T13:45:02.278Z,2.10
2019-05-06T13:47:44.093Z,1.63
2019-05-06T13:50:13.026Z,2.27
2019-05-06T13:52:42.523Z,1.97
2019-05-06T13:55:09.597Z,1.90
2019-05-06T13:57:39.042Z,2.20
2019-05-06T14:00:05.307Z,2.03
2019-05-06T14:02:35.474Z,1.80
2019-05-06T14:05:05.078Z,1.53
2019-05-06T14:07:34.443Z,2.13
2019-05-06T14:09:59.729Z,2.20
2019-05-06T14:12:27.075Z,2.37
2019-05-06T14:14:54.669Z,2.70
2019-05-06T14:17:22.454Z,3.00
2019-05-06T14:19:48.993Z,2.67
2019-05-06T14:22:15.335Z,2.80
2019-05-06T14:24:43.587Z,2.97
2019-05-06T14:27:11.528Z,2.40
2019-05-06T14:29:43.757Z,2.40
2019-05-06T14:32:12.325Z,3.00
2019-05-06T14:34:38.337Z,2.60
2019-05-06T14:37:04.966Z,3.17
2019-05-06T14:39:49.124Z,2.70
2019-05-06T14:42:04.222Z,2.87
2019-05-06T14:44:49.457Z,2.67
2019-05-06T14:47:15.765Z,3.47
2019-05-06T14:49:43.350Z,3.03
2019-05-06T14:52:09.996Z,2.70
2019-05-06T14:54:38.238Z,2.30
2019-05-06T14:57:13.003Z,2.50
2019-05-06T14:59:42.009Z,2.40
2019-05-06T15:02:07.782Z,2.23
2019-05-06T15:04:34.409Z,2.70
2019-05-06T15:07:02.138Z,2.47
2019-05-06T15:09:28.656Z,2.20
2019-05-06T15:11:55.090Z,2.57
2019-05-06T15:14:22.709Z,2.23
2019-05-06T15:16:49.737Z,1.87
2019-05-06T15:19:16.045Z,1.80
2019-05-06T15:21:42.926Z,2.07
2019-05-06T15:24:09.474Z,2.73
2019-05-06T15:26:35.818Z,3.07
2019-05-06T15:29:03.322Z,3.50
2019-05-06T15:31:34.676Z,2.50
2019-05-06T15:34:02.983Z,1.80
2019-05-06T15:36:34.587Z,2.53
2019-05-06T15:39:02.389Z,2.30
2019-05-06T15:41:31.961Z,1.93
2019-05-06T15:43:59.229Z,2.93
2019-05-06T15:46:25.822Z,2.13
2019-05-06T15:48:53.006Z,2.50
2019-05-06T15:51:22.302Z,2.07
2019-05-06T15:53:49.488Z,2.03
2019-05-06T15:56:15.854Z,2.03
2019-05-06T15:58:42.523Z,1.57
2019-05-06T16:01:09.150Z,2.90
2019-05-06T16:03:38.613Z,1.80
2019-05-06T16:06:05.347Z,1.70
2019-05-06T16:08:32.198Z,3.13
2019-05-06T16:10:59.148Z,1.63
2019-05-06T16:13:25.730Z,1.63
2019-05-06T16:15:53.187Z,2.03
2019-05-06T16:18:23.419Z,1.50
2019-05-06T16:20:50.148Z,1.60
2019-05-06T16:23:18.462Z,1.93
2019-05-06T16:25:45.056Z,2.43
2019-05-06T16:28:12.903Z,2.00
2019-05-06T16:30:39.628Z,1.23
2019-05-06T16:33:05.971Z,1.40
2019-05-06T16:35:33.504Z,1.57
2019-05-06T16:38:02.226Z,1.23
2019-05-06T16:40:28.457Z,1.90
2019-05-06T16:42:54.911Z,1.63
2019-05-06T16:45:23.478Z,1.70
2019-05-06T16:47:49.756Z,2.20
2019-05-06T16:50:17.250Z,1.50
2019-05-06T16:52:45.485Z,1.30
2019-05-06T16:55:16.425Z,1.50
2019-05-06T16:57:44.804Z,2.27
2019-05-06T17:00:13.520Z,1.87
2019-05-06T17:02:55.912Z,2.10
2019-05-06T17:05:33.679Z,1.67
2019-05-06T17:08:00.339Z,1.80
2019-05-06T17:10:26.701Z,1.40
2019-05-06T17:12:53.702Z,1.87
2019-05-06T17:15:20.248Z,1.87
2019-05-06T17:17:48.178Z,2.00
2019-05-06T17:20:14.891Z,1.30
2019-05-06T17:22:42.371Z,1.60
2019-05-06T17:25:10.081Z,1.80
2019-05-06T17:27:38.544Z,1.87
2019-05-06T17:30:15.926Z,1.57
2019-05-06T17:32:44.294Z,2.00
2019-05-06T17:35:12.594Z,1.80
2019-05-06T17:37:54.154Z,2.00
2019-05-06T17:40:22.949Z,1.83
2019-05-06T17:42:49.724Z,1.87
2019-05-06T17:45:35.116Z,1.67
2019-05-06T17:48:20.504Z,2.23
2019-05-06T17:51:05.544Z,1.97
2019-05-06T17:53:34.283Z,1.73
2019-05-06T17:56:01.829Z,1.90
2019-05-06T17:58:28.292Z,1.87
2019-05-06T18:00:55.441Z,1.27
2019-05-06T18:03:22.053Z,1.83
2019-05-06T18:05:48.394Z,3.20
2019-05-06T18:08:14.801Z,2.60
2019-05-06T18:10:42.684Z,3.30
2019-05-06T18:13:09.388Z,1.73
2019-05-06T18:15:35.717Z,2.00
2019-05-06T18:18:02.273Z,2.60
2019-05-06T18:20:28.922Z,3.07
2019-05-06T18:22:55.327Z,2.13
2019-05-06T18:25:23.030Z,1.77
2019-05-06T18:27:49.706Z,1.67
2019-05-06T18:30:24.085Z,2.33
2019-05-06T18:32:45.313Z,1.60
2019-05-06T18:35:13.102Z,1.60
2019-05-06T18:37:39.629Z,2.10
2019-05-06T18:40:06.226Z,1.80
2019-05-06T18:42:33.396Z,1.90
2019-05-06T18:44:59.822Z,1.87
2019-05-06T18:47:26.502Z,1.90
2019-05-06T18:49:52.864Z,1.93
2019-05-06T18:52:19.186Z,1.70
2019-05-06T18:54:52.288Z,1.80
2019-05-06T18:57:18.456Z,2.80
2019-05-06T18:59:45.309Z,1.63
2019-05-06T19:02:13.128Z,2.07
2019-05-06T19:04:42.055Z,1.83
2019-05-06T19:07:13.328Z,2.80
2019-05-06T19:09:39.044Z,2.10
2019-05-06T19:12:05.389Z,2.30
2019-05-06T19:14:32.939Z,2.63
2019-05-06T19:16:59.609Z,2.47
2019-05-06T19:19:25.932Z,2.80
2019-05-06T19:21:52.643Z,1.80
2019-05-06T19:24:19.214Z,2.43
2019-05-06T19:26:45.794Z,3.50
2019-05-06T19:29:12.349Z,2.60
2019-05-06T19:31:38.842Z,3.10
2019-05-06T19:34:05.521Z,3.23
2019-05-06T19:36:34.565Z,2.80
2019-05-06T19:39:02.283Z,3.47
2019-05-06T19:41:30.510Z,3.33
2019-05-06T19:43:57.513Z,3.10
2019-05-06T19:46:24.324Z,3.67
2019-05-06T19:48:52.442Z,3.70
2019-05-06T19:51:18.949Z,3.70
2019-05-06T19:53:45.273Z,3.47
2019-05-06T19:56:17.175Z,4.30
2019-05-06T19:58:43.537Z,3.57
2019-05-06T20:01:11.004Z,3.83
2019-05-06T20:03:37.670Z,4.23
2019-05-06T20:06:06.246Z,3.43
2019-05-06T20:08:34.518Z,4.00
2019-05-06T20:11:03.207Z,2.70
2019-05-06T20:13:29.611Z,3.70
2019-05-06T20:15:55.984Z,2.80
2019-05-06T20:18:22.333Z,3.47
2019-05-06T20:20:49.142Z,3.70
2019-05-06T20:23:15.784Z,3.90
2019-05-06T20:25:44.540Z,3.90
2019-05-06T20:28:10.350Z,4.00
2019-05-06T20:30:37.057Z,3.60
2019-05-06T20:33:04.908Z,3.70
2019-05-06T20:35:32.260Z,3.73
2019-05-06T20:37:58.822Z,3.47
2019-05-06T20:40:27.715Z,3.43
2019-05-06T20:42:54.529Z,3.00
2019-05-06T20:45:22.402Z,3.83
2019-05-06T20:47:48.808Z,3.37
2019-05-06T20:50:15.318Z,3.27
2019-05-06T20:52:42.463Z,4.47
2019-05-06T20:55:15.935Z,4.53
2019-05-06T20:57:38.704Z,4.10
2019-05-06T21:00:07.465Z,2.80
2019-05-06T21:02:35.714Z,3.97
2019-05-06T21:05:06.739Z,3.17
2019-05-06T21:07:34.277Z,3.53
2019-05-06T21:10:02.221Z,4.57
2019-05-06T21:12:29.813Z,3.60
2019-05-06T21:14:56.142Z,4.20
2019-05-06T21:17:22.985Z,3.43
2019-05-06T21:19:51.812Z,3.07
2019-05-06T21:22:17.885Z,3.80
2019-05-06T21:24:44.493Z,3.20
2019-05-06T21:27:12.366Z,3.73
2019-05-06T21:29:42.042Z,3.73
2019-05-06T21:32:08.423Z,3.30
2019-05-06T21:34:34.765Z,3.97
2019-05-06T21:37:02.832Z,4.50
2019-05-06T21:39:29.480Z,3.43
2019-05-06T21:41:57.384Z,3.23
2019-05-06T21:44:23.806Z,3.80
2019-05-06T21:46:50.139Z,3.30
2019-05-06T21:49:17.058Z,4.07
2019-05-06T21:51:43.760Z,3.27
2019-05-06T21:54:12.327Z,3.83
2019-05-06T21:56:38.777Z,4.10
2019-05-06T21:59:05.416Z,4.17
2019-05-06T22:01:33.037Z,3.80
2019-05-06T22:03:59.910Z,4.50
2019-05-06T22:06:26.466Z,4.20
2019-05-06T22:08:52.910Z,4.33
2019-05-06T22:11:19.545Z,3.83
2019-05-06T22:13:58.002Z,3.90
2019-05-06T22:16:14.502Z,4.37
2019-05-06T22:18:43.188Z,4.03
2019-05-06T22:21:11.399Z,4.73
2019-05-06T22:23:51.523Z,3.93
2019-05-06T22:26:18.306Z,4.03
2019-05-06T22:28:44.944Z,4.20
2019-05-06T22:31:11.250Z,4.00
2019-05-06T22:33:37.588Z,3.47
2019-05-06T22:36:03.942Z,3.77
2019-05-06T22:38:30.279Z,4.87
2019-05-06T22:40:56.881Z,5.13
2019-05-06T22:43:23.224Z,8.10
2019-05-06T22:45:49.553Z,10.43
2019-05-06T22:48:15.893Z,10.50
2019-05-06T22:50:42.478Z,8.10
2019-05-06T22:53:09.006Z,9.00
2019-05-06T22:55:35.712Z,7.50
2019-05-06T22:58:02.579Z,6.80
2019-05-06T23:00:33.089Z,5.70
2019-05-06T23:03:02.289Z,6.00
2019-05-06T23:05:32.468Z,3.83
2019-05-06T23:07:58.512Z,4.40
2019-05-06T23:10:24.998Z,3.93
2019-05-06T23:12:52.328Z,4.93
2019-05-06T23:15:18.987Z,4.57
2019-05-06T23:17:45.317Z,4.20
2019-05-06T23:20:12.133Z,3.97
2019-05-06T23:22:38.815Z,4.10
2019-05-06T23:25:05.453Z,5.33
2019-05-06T23:27:31.782Z,4.80
2019-05-06T23:29:58.137Z,4.73
2019-05-06T23:32:24.434Z,5.70
2019-05-06T23:34:52.349Z,6.07
2019-05-06T23:37:18.580Z,6.70
2019-05-06T23:40:42.952Z,6.37
2019-05-06T23:44:06.111Z,6.10
2019-05-06T23:47:29.489Z,7.10
2019-05-06T23:50:52.360Z,6.37
2019-05-06T23:54:15.043Z,5.70
2019-05-06T23:56:43.834Z,6.40
2019-05-06T23:59:16.512Z,7.50
